Thursday, November 27, 2014, 4:13 AM EST

KRIC, Richmond International Airport

Location: Sandston, VA, United States Lat: 37.517
Local Time: 4:13 AM EST ( 9:13 GMT) Lon: -77.317
Time Zone: US/Eastern Elev: 167 ft

Show me the last for .
Show Decoded

2014-11-27 04:01 METAR KRIC 270901Z 00000KT 10SM FEW008 BKN055 OVC070 04/03 A3004 =
2014-11-27 03:54 METAR KRIC 270854Z 00000KT 10SM FEW050 BKN085 BKN150 04/02 A3004 RMK AO2 SLP177
                 T00390022 53002 =
2014-11-27 02:54 METAR KRIC 270754Z 00000KT 6SM BR BKN070 OVC150 03/02 A3005 RMK AO2 SLP180
                 T00330017 =
2014-11-27 01:54 METAR KRIC 270654Z 00000KT 6SM BR SCT150 03/02 A3002 RMK AO2 SLP171 T00330022 =
2014-11-27 00:54 METAR KRIC 270554Z 20004KT 10SM FEW035 SCT080 03/02 A3003 RMK AO2 SLP176
                 T00330017 10044 20033 55004 =
2014-11-26 23:54 METAR KRIC 270454Z 00000KT 10SM OVC041 04/02 A3003 =
2014-11-26 22:54 METAR KRIC 270354Z 00000KT 10SM BKN044 OVC065 04/02 A3003 RMK AO2 SLP176
                 T00440022 =
2014-11-26 21:54 METAR KRIC 270254Z 27006KT 10SM FEW015 SCT032 BKN046 04/02 A3005 RMK AO2 SLP180
                 T00440022 53025 =
2014-11-26 20:54 METAR KRIC 270154Z 29006KT 10SM FEW012 SCT018 BKN065 04/02 A3001 RMK AO2 SLP169
                 T00440022 =
2014-11-26 20:31 METAR KRIC 270131Z 30006KT 10SM FEW012 SCT018 BKN065 04/02 A3000 RMK AO2 =
2014-11-26 20:17 METAR KRIC 270117Z 30007KT 10SM SCT012 BKN018 BKN060 04/02 A3000 RMK AO2 =
2014-11-26 19:54 METAR KRIC 270054Z 33006KT 10SM BKN013 BKN038 OVC075 04/02 A2999 RMK AO2 SLP160
                 T00390017 =
2014-11-26 18:54 METAR KRIC 262354Z 32008KT 10SM OVC011 04/02 A2997 RMK AO2 RAE08 SLP154 P0000
                 60007 T00390017 10050 20028 53012 =
2014-11-26 17:54 METAR KRIC 262254Z 34011KT 10SM -RA BKN012 BKN040 OVC065 04/02 A2995 RMK AO2
                 SLP146 P0000 T00390017 =
2014-11-26 17:24 METAR KRIC 262224Z 33010KT 10SM -RA BKN011 BKN041 OVC065 04/02 A2995 RMK AO2
                 P0000 =
2014-11-26 16:54 METAR KRIC 262154Z 33013G18KT 6SM -RA BR BKN009 OVC045 03/02 A2995 RMK AO2 PLE06
                 SLP147 P0001 T00330017 =
2014-11-26 16:10 METAR KRIC 262110Z 32012KT 7SM -RA OVC008 03/01 A2994 RMK AO2 PLE06 P0000 =
2014-11-26 15:54 METAR KRIC 262054Z 32014KT 5SM -RAPL BR OVC010 03/01 A2993 RMK AO2
                 DZE11RAB11PLB37 SLP142 P0005 60006 T00280011 53023 =
2014-11-26 15:37 METAR KRIC 262037Z 32013G20KT 2SM -RAPL BR BKN010 OVC031 03/01 A2993 RMK AO2 SFC
                 VIS 5 DZE11RAB11PLB37 P0004 =
2014-11-26 15:32 METAR KRIC 262032Z 32014G20KT 2SM RA BR BKN010 OVC031 03/01 A2993 RMK AO2 SFC
                 VIS 4 DZE11RAB11 P0004 =
2014-11-26 15:15 METAR KRIC 262015Z 32015G23KT 2SM RA BR BKN008 OVC012 03/02 A2991 RMK AO2
                 DZE11RAB11 P0001 =
2014-11-26 15:06 METAR KRIC 262006Z 31017G25KT 1 3/4SM -DZ BR OVC010 04/02 A2992 =
2014-11-26 15:03 METAR KRIC 262003Z 30019G25KT 2SM -DZ BR OVC008 04/02 A2992 RMK AO2 CIG 007V012
                 P0000 =
2014-11-26 14:54 METAR KRIC 261954Z 32015G20KT 3SM -DZ BR OVC008 04/02 A2990 RMK AO2 DZB52 SLP131
                 P0000 T00440022 =
2014-11-26 13:54 METAR KRIC 261854Z 33013G20KT 10SM OVC008 04/03 A2986 RMK AO2 RAE37 CIG 007V011
                 SLP118 P0001 T00440028 =
2014-11-26 13:25 METAR KRIC 261825Z 02012G24KT 10SM -RA OVC008 05/03 A2981 RMK AO2 CIG 006V012
                 P0001 =
2014-11-26 12:54 METAR KRIC 261754Z 01011G19KT 10SM -RA OVC010 05/03 A2987 RMK AO2 CIG 007V013
                 SLP119 P0001 60072 T00500028 10072 20050 56046 =
2014-11-26 12:33 METAR KRIC 261733Z 01013KT 10SM -RA OVC011 05/03 A2986 RMK AO2 CIG 007V014 P0000
                 =
2014-11-26 11:54 METAR KRIC 261654Z 02014G21KT 4SM -RA BR OVC008 05/03 A2989 =
2014-11-26 11:30 METAR KRIC 261630Z 36012KT 3SM +RA BR BKN008 OVC014 06/04 A2993 RMK AO2 CIG
                 005V010 P0004 =
2014-11-26 11:28 METAR KRIC 261628Z 01013KT 3SM +RA BR BKN010 OVC016 06/04 A2993 RMK AO2 CIG
                 006V012 P0003 =
2014-11-26 10:54 METAR KRIC 261554Z 36014KT 3SM +RA BR OVC008 06/04 A2995 RMK AO2 CIG 006V012
                 SLP147 P0010 T00610044 =
2014-11-26 09:54 METAR KRIC 261454Z 36012KT 3SM RA BR BKN008 OVC012 07/05 A3000 RMK AO2 SLP166
                 P0015 60054 T00670050 51007 =
2014-11-26 09:31 METAR KRIC 261431Z 01010G21KT 3SM RA BR BKN008 BKN012 OVC038 07/05 A2998 =
2014-11-26 08:54 METAR KRIC 261354Z 01011G18KT 2 1/2SM RA BR SCT007 OVC010 07/05 A3000 RMK AO2
                 SLP163 P0018 T00720050 =
2014-11-26 08:30 METAR KRIC 261330Z 03014G21KT 2 1/2SM +RA BR OVC010 07/05 A2999 RMK AO2 PRESFR
                 P0015 =
2014-11-26 07:54 METAR KRIC 261254Z 02012G18KT 2 1/2SM RA BR BKN007 OVC040 07/05 A3001 RMK AO2
                 SLP167 P0021 T00720050 =
2014-11-26 07:01 METAR KRIC 261201Z 03016G23KT 2SM +RA BR BKN005 OVC030 07/06 A2997 RMK AO2
                 PRESFR P0004 =
2014-11-26 06:54 METAR KRIC 261154Z 03016G23KT 3SM +RA BR BKN007 OVC050 07/06 A2998 RMK AO2
                 PRESFR SLP158 P0015 60052 70056 T00720056 10094 20072 58015 =
2014-11-26 05:54 METAR KRIC 261054Z 03011KT 3SM RA BR BKN007 OVC040 07/06 A3002 RMK AO2 SLP169
                 P0005 T00720056 =
2014-11-26 04:54 METAR KRIC 260954Z 06009KT 030V090 3SM RA BR BKN007 OVC050 08/06 A3002 RMK AO2
                 SLP171 P0011 T00780056 =
2014-11-26 04:15 METAR KRIC 260915Z 06007KT 3SM RA BR BKN007 OVC050 08/06 A3004 RMK AO2 P0004 =

Support USWX by starting your Amazon purchase here.